createdAt,value
2018-04-30T00:00:31.882Z,98.30
2018-04-30T00:02:59.354Z,98.70
2018-04-30T00:05:26.896Z,98.70
2018-04-30T00:07:54.366Z,98.30
2018-04-30T00:10:21.862Z,97.60
2018-04-30T00:12:49.367Z,97.00
2018-04-30T00:15:16.904Z,96.50
2018-04-30T00:17:44.375Z,96.10
2018-04-30T00:20:11.854Z,96.10
2018-04-30T00:22:39.386Z,95.80
2018-04-30T00:25:06.891Z,95.70
2018-04-30T00:27:34.371Z,95.50
2018-04-30T00:30:02.655Z,95.80
2018-04-30T00:32:30.915Z,96.40
2018-04-30T00:34:58.390Z,96.40
2018-04-30T00:37:26.680Z,97.50
2018-04-30T00:39:54.192Z,97.40
2018-04-30T00:42:21.724Z,97.70
2018-04-30T00:44:49.186Z,97.70
2018-04-30T00:47:16.716Z,97.70
2018-04-30T00:49:44.232Z,97.70
2018-04-30T00:52:11.755Z,97.90
2018-04-30T00:54:51.096Z,98.00
2018-04-30T00:57:18.611Z,98.20
2018-04-30T00:59:46.882Z,99.00
2018-04-30T01:02:15.189Z,99.00
2018-04-30T01:04:42.653Z,99.00
2018-04-30T01:07:10.155Z,98.90
2018-04-30T01:09:38.437Z,98.90
2018-04-30T01:12:06.685Z,98.90
2018-04-30T01:14:34.187Z,98.90
2018-04-30T01:17:02.431Z,99.10
2018-04-30T01:19:29.911Z,99.10
2018-04-30T01:21:58.174Z,99.20
2018-04-30T01:24:26.463Z,99.60
2018-04-30T01:26:54.748Z,99.80
2018-04-30T01:29:23.024Z,99.70
2018-04-30T01:31:50.541Z,99.60
2018-04-30T01:34:18.031Z,99.90
2018-04-30T01:36:46.313Z,99.10
2018-04-30T01:39:13.784Z,99.10
2018-04-30T01:41:41.314Z,99.00
2018-04-30T01:44:09.570Z,99.50
2018-04-30T01:46:37.100Z,99.50
2018-04-30T01:49:04.578Z,99.70
2018-04-30T01:51:32.089Z,99.60
2018-04-30T01:53:59.608Z,99.50
2018-04-30T01:56:27.143Z,99.70
2018-04-30T01:58:54.692Z,99.50
2018-04-30T02:01:22.196Z,99.50
2018-04-30T02:03:49.729Z,99.60
2018-04-30T02:06:17.235Z,99.90
2018-04-30T02:08:44.745Z,99.90
2018-04-30T02:11:12.249Z,99.30
2018-04-30T02:13:39.778Z,99.10
2018-04-30T02:16:08.096Z,99.70
2018-04-30T02:18:35.530Z,99.70
2018-04-30T02:21:03.811Z,99.90
2018-04-30T02:23:31.306Z,99.90
2018-04-30T02:25:59.583Z,99.90
2018-04-30T02:28:27.839Z,99.90
2018-04-30T02:30:55.311Z,99.90
2018-04-30T02:33:22.836Z,99.90
2018-04-30T02:35:50.343Z,99.90
2018-04-30T02:38:17.827Z,99.90
2018-04-30T02:40:46.112Z,99.90
2018-04-30T02:43:13.656Z,99.90
2018-04-30T02:45:41.158Z,99.90
2018-04-30T02:48:08.680Z,99.90
2018-04-30T02:50:36.974Z,99.90
2018-04-30T02:53:04.455Z,99.90
2018-04-30T02:55:31.930Z,99.90
2018-04-30T02:57:59.465Z,99.90
2018-04-30T03:00:26.971Z,99.90
2018-04-30T03:02:54.450Z,99.90
2018-04-30T03:05:22.690Z,99.90
2018-04-30T03:07:50.180Z,99.90
2018-04-30T03:10:18.452Z,99.90
2018-04-30T03:12:46.754Z,99.90
2018-04-30T03:15:14.222Z,99.90
2018-04-30T03:17:41.772Z,99.90
2018-04-30T03:20:09.243Z,99.90
2018-04-30T03:22:36.724Z,99.90
2018-04-30T03:25:04.211Z,99.90
2018-04-30T03:27:32.451Z,99.90
2018-04-30T03:29:59.977Z,99.90
2018-04-30T03:32:27.456Z,99.90
2018-04-30T03:34:54.971Z,99.90
2018-04-30T03:37:23.210Z,99.90
2018-04-30T03:39:50.704Z,99.90
2018-04-30T03:42:18.947Z,99.90
2018-04-30T03:44:46.422Z,99.90
2018-04-30T03:47:14.699Z,99.90
2018-04-30T03:49:42.235Z,99.90
2018-04-30T03:52:09.733Z,99.90
2018-04-30T03:54:37.255Z,99.90
2018-04-30T03:57:04.771Z,99.90
2018-04-30T03:59:32.259Z,99.90
2018-04-30T04:02:11.582Z,99.90
2018-04-30T04:04:50.986Z,99.90
2018-04-30T04:07:18.500Z,99.90
2018-04-30T04:09:46.021Z,99.20
2018-04-30T04:12:13.490Z,97.20
2018-04-30T04:14:40.966Z,95.60
2018-04-30T04:17:08.472Z,93.60
2018-04-30T04:19:35.998Z,92.50
2018-04-30T04:22:03.462Z,91.90
2018-04-30T04:24:31.712Z,91.70
2018-04-30T04:26:59.186Z,91.70
2018-04-30T04:29:27.478Z,92.10
2018-04-30T04:31:55.747Z,92.10
2018-04-30T04:34:23.219Z,92.20
2018-04-30T04:36:50.724Z,92.00
2018-04-30T04:39:18.244Z,92.30
2018-04-30T04:41:45.784Z,92.20
2018-04-30T04:44:14.020Z,92.50
2018-04-30T04:46:41.492Z,92.40
2018-04-30T04:49:09.804Z,92.20
2018-04-30T04:51:38.033Z,92.40
2018-04-30T04:54:05.519Z,92.10
2018-04-30T04:56:33.786Z,91.90
2018-04-30T04:59:01.258Z,91.90
2018-04-30T05:01:29.547Z,91.40
2018-04-30T05:03:57.011Z,91.50
2018-04-30T05:06:24.496Z,91.90
2018-04-30T05:08:52.008Z,91.50
2018-04-30T05:11:20.251Z,91.40
2018-04-30T05:13:47.727Z,91.40
2018-04-30T05:16:15.239Z,90.90
2018-04-30T05:18:42.749Z,91.30
2018-04-30T05:21:11.036Z,91.30
2018-04-30T05:23:39.263Z,91.00
2018-04-30T05:26:08.305Z,88.90
2018-04-30T05:28:35.761Z,89.00
2018-04-30T05:31:04.075Z,88.90
2018-04-30T05:33:31.572Z,88.80
2018-04-30T05:35:59.050Z,86.40
2018-04-30T05:38:27.356Z,81.90
2018-04-30T05:40:54.871Z,82.50
2018-04-30T05:43:22.387Z,83.90
2018-04-30T05:45:49.892Z,84.20
2018-04-30T05:48:18.164Z,86.70
2018-04-30T05:50:45.672Z,86.60
2018-04-30T05:53:13.188Z,85.30
2018-04-30T05:55:41.597Z,85.20
2018-04-30T05:58:09.100Z,83.90
2018-04-30T06:00:36.974Z,83.00
2018-04-30T06:03:04.402Z,82.70
2018-04-30T06:05:31.899Z,83.40
2018-04-30T06:08:00.171Z,82.00
2018-04-30T06:10:28.433Z,82.70
2018-04-30T06:12:55.951Z,82.60
2018-04-30T06:15:23.479Z,80.90
2018-04-30T06:17:51.749Z,78.00
2018-04-30T06:20:22.041Z,74.20
2018-04-30T06:22:49.557Z,74.10
2018-04-30T06:25:17.195Z,72.20
2018-04-30T06:27:45.442Z,71.60
2018-04-30T06:30:12.940Z,71.60
2018-04-30T06:32:40.446Z,71.40
2018-04-30T06:35:07.924Z,71.90
2018-04-30T06:37:36.191Z,76.10
2018-04-30T06:40:03.729Z,76.10
2018-04-30T06:42:31.231Z,76.90
2018-04-30T06:44:59.508Z,79.20
2018-04-30T06:47:27.799Z,78.70
2018-04-30T06:49:55.305Z,78.70
2018-04-30T06:52:22.810Z,79.80
2018-04-30T06:54:50.274Z,80.80
2018-04-30T06:57:17.815Z,75.30
2018-04-30T06:59:45.338Z,72.40
2018-04-30T07:02:12.861Z,68.00
2018-04-30T07:04:40.358Z,66.70
2018-04-30T07:07:07.877Z,65.30
2018-04-30T07:09:35.495Z,65.80
2018-04-30T07:12:02.896Z,69.30
2018-04-30T07:14:30.398Z,72.60
2018-04-30T07:16:57.924Z,73.00
2018-04-30T07:19:25.399Z,72.40
2018-04-30T07:21:52.889Z,72.40
2018-04-30T07:24:21.190Z,72.70
2018-04-30T07:26:48.668Z,72.50
2018-04-30T07:29:16.141Z,68.40
2018-04-30T07:31:43.636Z,65.70
2018-04-30T07:34:11.908Z,56.50
2018-04-30T07:36:40.171Z,53.10
2018-04-30T07:39:07.731Z,53.10
2018-04-30T07:41:35.178Z,52.70
2018-04-30T07:44:02.650Z,50.20
2018-04-30T07:46:30.967Z,52.00
2018-04-30T07:48:58.510Z,51.90
2018-04-30T07:51:26.024Z,51.60
2018-04-30T07:53:53.589Z,51.90
2018-04-30T07:56:21.093Z,53.70
2018-04-30T07:58:48.598Z,49.50
2018-04-30T08:01:16.133Z,51.80
2018-04-30T08:03:43.670Z,53.30
2018-04-30T08:06:11.148Z,56.60
2018-04-30T08:08:38.637Z,56.40
2018-04-30T08:11:06.177Z,56.20
2018-04-30T08:13:33.692Z,57.50
2018-04-30T08:16:01.225Z,57.20
2018-04-30T08:18:29.528Z,61.50
2018-04-30T08:20:57.014Z,61.50
2018-04-30T08:23:36.974Z,61.90
2018-04-30T08:26:04.488Z,62.80
2018-04-30T08:28:32.780Z,61.30
2018-04-30T08:31:00.301Z,61.20
2018-04-30T08:33:27.831Z,57.70
2018-04-30T08:35:55.360Z,57.50
2018-04-30T08:38:22.847Z,58.10
2018-04-30T08:40:50.315Z,58.40
2018-04-30T08:43:17.832Z,57.50
2018-04-30T08:45:45.325Z,56.80
2018-04-30T08:48:12.815Z,56.10
2018-04-30T08:50:40.316Z,56.10
2018-04-30T08:53:07.804Z,57.00
2018-04-30T08:55:35.279Z,58.10
2018-04-30T08:58:02.769Z,57.80
2018-04-30T09:00:31.113Z,57.30
2018-04-30T09:02:58.545Z,57.40
2018-04-30T09:05:26.078Z,58.50
2018-04-30T09:07:53.598Z,58.80
2018-04-30T09:10:21.096Z,59.40
2018-04-30T09:12:48.567Z,61.90
2018-04-30T09:15:16.100Z,62.50
2018-04-30T09:17:43.617Z,64.10
2018-04-30T09:20:11.144Z,63.40
2018-04-30T09:22:38.607Z,62.40
2018-04-30T09:25:06.147Z,64.20
2018-04-30T09:27:33.720Z,63.80
2018-04-30T09:30:01.258Z,63.50
2018-04-30T09:32:28.777Z,63.70
2018-04-30T09:34:56.296Z,62.10
2018-04-30T09:37:23.768Z,62.70
2018-04-30T09:39:51.287Z,61.50
2018-04-30T09:42:18.794Z,60.70
2018-04-30T09:44:46.283Z,58.60
2018-04-30T09:47:14.531Z,58.40
2018-04-30T09:49:42.021Z,58.30
2018-04-30T09:52:09.498Z,55.90
2018-04-30T09:54:36.999Z,55.90
2018-04-30T09:57:04.461Z,58.40
2018-04-30T09:59:31.954Z,59.80
2018-04-30T10:01:59.427Z,57.40
2018-04-30T10:04:26.902Z,57.50
2018-04-30T10:06:54.431Z,60.40
2018-04-30T10:09:21.932Z,60.30
2018-04-30T10:11:49.407Z,60.40
2018-04-30T10:14:16.890Z,61.10
2018-04-30T10:16:45.135Z,58.80
2018-04-30T10:19:12.623Z,58.70
2018-04-30T10:21:40.136Z,59.90
2018-04-30T10:24:08.379Z,58.40
2018-04-30T10:26:35.863Z,58.40
2018-04-30T10:29:03.435Z,59.70
2018-04-30T10:31:31.734Z,61.20
2018-04-30T10:33:59.200Z,61.20
2018-04-30T10:36:27.511Z,63.30
2018-04-30T10:38:55.037Z,63.30
2018-04-30T10:41:23.376Z,66.50
2018-04-30T10:43:50.850Z,66.30
2018-04-30T10:46:18.384Z,60.50
2018-04-30T10:48:45.846Z,60.70
2018-04-30T10:51:13.364Z,61.00
2018-04-30T10:53:40.869Z,62.10
2018-04-30T10:56:08.356Z,63.90
2018-04-30T10:58:36.602Z,62.30
2018-04-30T11:01:04.127Z,62.30
2018-04-30T11:03:31.619Z,63.10
2018-04-30T11:05:59.158Z,59.30
2018-04-30T11:08:26.623Z,60.40
2018-04-30T11:10:54.140Z,59.00
2018-04-30T11:13:21.600Z,61.50
2018-04-30T11:15:49.103Z,62.60
2018-04-30T11:18:16.577Z,61.00
2018-04-30T11:20:44.065Z,62.70
2018-04-30T11:23:11.539Z,63.70
2018-04-30T11:25:39.053Z,60.90
2018-04-30T11:28:07.286Z,61.20
2018-04-30T11:30:35.539Z,61.40
2018-04-30T11:33:03.052Z,61.20
2018-04-30T11:35:31.347Z,55.40
2018-04-30T11:37:58.879Z,55.20
2018-04-30T11:40:26.388Z,57.90
2018-04-30T11:42:53.885Z,57.10
2018-04-30T11:45:21.362Z,56.00
2018-04-30T11:47:49.631Z,56.70
2018-04-30T11:50:17.148Z,56.60
2018-04-30T11:52:44.696Z,57.90
2018-04-30T11:55:12.223Z,58.00
2018-04-30T11:57:40.528Z,57.10
2018-04-30T12:00:08.026Z,57.10
2018-04-30T12:02:35.523Z,56.90
2018-04-30T12:05:03.070Z,57.10
2018-04-30T12:07:30.564Z,57.40
2018-04-30T12:09:58.100Z,56.10
2018-04-30T12:12:25.523Z,57.90
2018-04-30T12:14:53.008Z,56.40
2018-04-30T12:17:20.497Z,56.50
2018-04-30T12:19:47.980Z,56.90
2018-04-30T12:22:15.586Z,57.90
2018-04-30T12:24:43.038Z,56.80
2018-04-30T12:27:10.584Z,57.00
2018-04-30T12:29:38.881Z,56.70
2018-04-30T12:32:09.051Z,56.50
2018-04-30T12:34:36.668Z,58.20
2018-04-30T12:37:04.164Z,58.10
2018-04-30T12:39:31.666Z,58.00
2018-04-30T12:41:59.978Z,57.70
2018-04-30T12:44:27.496Z,57.50
2018-04-30T12:46:55.055Z,57.50
2018-04-30T12:49:23.365Z,55.70
2018-04-30T12:51:50.900Z,55.70
2018-04-30T12:54:18.416Z,56.90
2018-04-30T12:56:45.960Z,54.70
2018-04-30T12:59:13.492Z,54.60
2018-04-30T13:01:41.033Z,54.90
2018-04-30T13:04:08.597Z,56.90
2018-04-30T13:06:36.111Z,55.80
2018-04-30T13:09:03.711Z,53.10
2018-04-30T13:11:31.212Z,54.00
2018-04-30T13:13:58.743Z,52.80
2018-04-30T13:16:26.271Z,52.30
2018-04-30T13:18:53.813Z,52.40
2018-04-30T13:21:21.294Z,53.20
2018-04-30T13:23:49.583Z,54.60
2018-04-30T13:26:17.075Z,54.60
2018-04-30T13:28:44.567Z,53.70
2018-04-30T13:31:12.086Z,53.30
2018-04-30T13:33:39.620Z,52.50
2018-04-30T13:36:07.126Z,53.80
2018-04-30T13:38:34.646Z,53.30
2018-04-30T13:41:02.111Z,53.70
2018-04-30T13:43:30.191Z,52.40
2018-04-30T13:45:57.714Z,51.60
2018-04-30T13:48:26.016Z,51.10
2018-04-30T13:50:53.479Z,51.10
2018-04-30T13:53:20.974Z,52.30
2018-04-30T13:55:49.222Z,51.20
2018-04-30T13:58:16.808Z,51.30
2018-04-30T14:00:44.305Z,50.40
2018-04-30T14:03:11.793Z,51.40
2018-04-30T14:05:39.299Z,50.90
2018-04-30T14:08:07.552Z,52.80
2018-04-30T14:10:35.019Z,52.70
2018-04-30T14:13:02.509Z,52.50
2018-04-30T14:15:30.046Z,50.20
2018-04-30T14:17:58.311Z,48.90
2018-04-30T14:20:26.580Z,47.40
2018-04-30T14:22:54.074Z,47.40
2018-04-30T14:25:21.601Z,48.00
2018-04-30T14:27:49.156Z,49.00
2018-04-30T14:30:16.674Z,49.20
2018-04-30T14:32:44.189Z,51.30
2018-04-30T14:35:12.460Z,48.90
2018-04-30T14:37:40.737Z,49.00
2018-04-30T14:40:08.989Z,48.60
2018-04-30T14:42:36.518Z,48.50
2018-04-30T14:45:04.011Z,49.80
2018-04-30T14:47:31.474Z,50.00
2018-04-30T14:49:59.055Z,49.70
2018-04-30T14:52:27.343Z,48.90
2018-04-30T14:54:54.877Z,48.80
2018-04-30T14:57:23.161Z,48.10
2018-04-30T14:59:51.456Z,49.20
2018-04-30T15:02:18.923Z,49.20
2018-04-30T15:04:46.439Z,48.80
2018-04-30T15:07:13.956Z,49.60
2018-04-30T15:09:41.472Z,49.40
2018-04-30T15:12:08.999Z,49.20
2018-04-30T15:14:36.484Z,49.70
2018-04-30T15:17:04.009Z,47.60
2018-04-30T15:19:31.614Z,48.80
2018-04-30T15:21:59.056Z,49.70
2018-04-30T15:24:27.349Z,49.50
2018-04-30T15:26:54.877Z,49.50
2018-04-30T15:29:22.358Z,49.50
2018-04-30T15:31:49.849Z,49.00
2018-04-30T15:34:17.340Z,49.30
2018-04-30T15:36:45.026Z,48.90
2018-04-30T15:39:12.590Z,50.80
2018-04-30T15:41:40.842Z,50.10
2018-04-30T15:44:08.315Z,50.00
2018-04-30T15:46:36.571Z,47.40
2018-04-30T15:49:04.106Z,47.50
2018-04-30T15:51:31.613Z,48.60
2018-04-30T15:53:59.960Z,49.20
2018-04-30T15:56:27.451Z,49.20
2018-04-30T15:58:54.980Z,49.10
2018-04-30T16:01:22.534Z,49.80
2018-04-30T16:03:50.060Z,50.50
2018-04-30T16:06:17.601Z,50.40
2018-04-30T16:08:45.091Z,48.00
2018-04-30T16:11:12.610Z,48.20
2018-04-30T16:13:40.151Z,49.70
2018-04-30T16:16:08.447Z,48.80
2018-04-30T16:18:35.919Z,48.80
2018-04-30T16:21:03.438Z,50.00
2018-04-30T16:23:30.994Z,49.20
2018-04-30T16:25:59.278Z,49.00
2018-04-30T16:28:27.573Z,49.10
2018-04-30T16:30:55.057Z,49.10
2018-04-30T16:33:22.541Z,49.00
2018-04-30T16:35:50.036Z,48.90
2018-04-30T16:38:17.553Z,47.70
2018-04-30T16:40:45.101Z,47.80
2018-04-30T16:43:12.615Z,48.60
2018-04-30T16:45:40.110Z,49.10
2018-04-30T16:48:07.629Z,50.00
2018-04-30T16:50:35.142Z,49.40
2018-04-30T16:53:02.840Z,47.40
2018-04-30T16:55:30.220Z,47.20
2018-04-30T16:57:57.707Z,47.60
2018-04-30T17:00:25.197Z,46.20
2018-04-30T17:02:53.462Z,45.20
2018-04-30T17:05:21.000Z,45.20
2018-04-30T17:07:48.479Z,45.60
2018-04-30T17:10:15.997Z,46.50
2018-04-30T17:12:43.488Z,46.40
2018-04-30T17:15:10.988Z,46.30
2018-04-30T17:17:38.457Z,46.40
2018-04-30T17:20:06.016Z,46.30
2018-04-30T17:22:33.538Z,46.80
2018-04-30T17:25:01.824Z,47.00
2018-04-30T17:27:29.312Z,46.90
2018-04-30T17:29:56.831Z,47.30
2018-04-30T17:32:24.377Z,47.30
2018-04-30T17:34:51.878Z,47.20
2018-04-30T17:37:19.403Z,48.20
2018-04-30T17:39:46.904Z,47.40
2018-04-30T17:42:14.425Z,48.20
2018-04-30T17:44:42.695Z,50.00
2018-04-30T17:53:56.784Z,51.40
2018-04-30T17:56:25.167Z,47.70
2018-04-30T17:58:53.487Z,48.10
2018-04-30T18:01:20.893Z,48.10
2018-04-30T18:03:49.163Z,50.10
2018-04-30T18:06:17.454Z,50.50
2018-04-30T18:08:45.681Z,51.30
2018-04-30T18:11:13.987Z,50.80
2018-04-30T18:13:42.272Z,50.80
2018-04-30T18:16:10.498Z,51.00
2018-04-30T18:18:38.785Z,52.30
2018-04-30T18:21:06.247Z,51.70
2018-04-30T18:23:33.739Z,52.10
2018-04-30T18:26:01.966Z,53.00
2018-04-30T18:28:29.446Z,53.00
2018-04-30T18:30:56.952Z,53.70
2018-04-30T18:33:24.450Z,54.10
2018-04-30T18:35:51.940Z,54.50
2018-04-30T18:38:20.223Z,54.20
2018-04-30T18:40:48.451Z,55.00
2018-04-30T18:43:15.929Z,55.00
2018-04-30T18:45:43.423Z,55.80
2018-04-30T18:48:10.894Z,56.20
2018-04-30T18:50:38.372Z,56.70
2018-04-30T18:53:05.895Z,56.60
2018-04-30T18:55:33.641Z,56.30
2018-04-30T18:58:01.931Z,56.20
2018-04-30T19:00:29.431Z,56.20
2018-04-30T19:02:56.932Z,57.30
2018-04-30T19:05:25.201Z,59.70
2018-04-30T19:07:53.493Z,56.80
2018-04-30T19:10:21.722Z,56.90
2018-04-30T19:12:49.245Z,56.90
2018-04-30T19:15:16.711Z,57.10
2018-04-30T19:17:44.227Z,56.40
2018-04-30T19:20:12.558Z,57.50
2018-04-30T19:22:40.751Z,56.60
2018-04-30T19:25:08.257Z,56.50
2018-04-30T19:27:35.813Z,57.00
2018-04-30T19:30:03.282Z,56.60
2018-04-30T19:32:30.772Z,57.30
2018-04-30T19:34:58.287Z,57.60
2018-04-30T19:37:25.785Z,57.40
2018-04-30T19:39:53.293Z,57.50
2018-04-30T19:42:21.531Z,59.00
2018-04-30T19:44:49.065Z,59.00
2018-04-30T19:47:16.564Z,59.60
2018-04-30T19:49:44.083Z,61.50
2018-04-30T19:52:11.553Z,62.30
2018-04-30T19:54:39.067Z,62.80
2018-04-30T19:57:06.526Z,65.70
2018-04-30T19:59:34.064Z,64.30
2018-04-30T20:02:02.339Z,63.00
2018-04-30T20:04:30.579Z,64.30
2018-04-30T20:06:58.842Z,61.30
2018-04-30T20:09:26.356Z,61.30
2018-04-30T20:11:54.585Z,63.00
2018-04-30T20:14:22.398Z,63.00
2018-04-30T20:16:49.905Z,63.50
2018-04-30T20:19:17.407Z,65.20
2018-04-30T20:21:45.676Z,64.90
2018-04-30T20:24:13.933Z,65.20
2018-04-30T20:26:41.437Z,65.20
2018-04-30T20:29:09.011Z,63.20
2018-04-30T20:31:36.511Z,62.80
2018-04-30T20:34:03.977Z,61.60
2018-04-30T20:36:32.224Z,61.30
2018-04-30T20:38:59.743Z,61.30
2018-04-30T20:41:27.203Z,62.30
2018-04-30T20:43:54.753Z,62.70
2018-04-30T20:46:22.214Z,59.90
2018-04-30T20:48:49.770Z,59.80
2018-04-30T20:51:17.231Z,62.60
2018-04-30T20:53:44.702Z,59.90
2018-04-30T20:56:12.208Z,60.50
2018-04-30T20:58:39.703Z,60.70
2018-04-30T21:01:07.214Z,60.50
2018-04-30T21:03:34.688Z,60.60
2018-04-30T21:06:02.973Z,61.30
2018-04-30T21:08:53.693Z,63.30
2018-04-30T21:11:21.186Z,63.30
2018-04-30T21:13:48.649Z,64.10
2018-04-30T21:16:16.156Z,63.30
2018-04-30T21:18:44.434Z,62.40
2018-04-30T21:21:12.712Z,62.60
2018-04-30T21:23:40.218Z,62.60
2018-04-30T21:26:07.739Z,63.90
2018-04-30T21:28:35.201Z,64.50
2018-04-30T21:31:02.732Z,68.80
2018-04-30T21:33:31.567Z,67.00
2018-04-30T21:35:59.053Z,66.90
2018-04-30T21:38:26.541Z,63.50
2018-04-30T21:40:54.022Z,63.20
2018-04-30T21:43:21.589Z,63.00
2018-04-30T21:45:49.103Z,62.20
2018-04-30T21:48:16.609Z,62.30
2018-04-30T21:50:44.082Z,62.10
2018-04-30T21:53:11.537Z,60.20
2018-04-30T21:55:39.028Z,60.20
2018-04-30T21:58:07.254Z,60.60
2018-04-30T22:00:34.868Z,60.60
2018-04-30T22:03:02.257Z,60.70
2018-04-30T22:05:29.800Z,61.20
2018-04-30T22:07:57.303Z,61.90
2018-04-30T22:10:24.780Z,62.40
2018-04-30T22:12:52.285Z,63.00
2018-04-30T22:15:19.763Z,62.60
2018-04-30T22:17:47.268Z,62.80
2018-04-30T22:20:15.514Z,62.70
2018-04-30T22:22:43.031Z,62.60
2018-04-30T22:25:10.494Z,61.50
2018-04-30T22:27:38.017Z,62.20
2018-04-30T22:30:06.278Z,63.60
2018-04-30T22:32:33.791Z,63.60
2018-04-30T22:35:01.291Z,63.20
2018-04-30T22:37:28.799Z,63.50
2018-04-30T22:39:56.304Z,63.80
2018-04-30T22:42:23.835Z,63.70
2018-04-30T22:44:52.104Z,63.80
2018-04-30T22:47:19.570Z,63.80
2018-04-30T22:49:47.072Z,64.90
2018-04-30T22:52:15.349Z,64.70
2018-04-30T22:54:43.582Z,65.70
2018-04-30T22:57:11.063Z,65.70
2018-04-30T22:59:38.523Z,66.10
2018-04-30T23:02:06.803Z,66.40
2018-04-30T23:04:35.068Z,67.80
2018-04-30T23:07:02.541Z,67.70
2018-04-30T23:09:30.824Z,68.80
2018-04-30T23:11:59.104Z,69.40
2018-04-30T23:14:26.595Z,69.30
2018-04-30T23:16:54.070Z,68.80
2018-04-30T23:19:21.611Z,68.80
2018-04-30T23:21:49.089Z,70.10
2018-04-30T23:24:16.599Z,69.20
2018-04-30T23:26:44.116Z,70.40
2018-04-30T23:29:11.628Z,70.10
2018-04-30T23:31:39.140Z,70.10
2018-04-30T23:34:06.598Z,71.20
2018-04-30T23:36:34.884Z,71.00
2018-04-30T23:39:03.263Z,71.00
2018-04-30T23:41:31.506Z,71.90
2018-04-30T23:43:58.975Z,71.90
2018-04-30T23:46:26.515Z,72.70
2018-04-30T23:48:54.008Z,72.70
2018-04-30T23:51:22.292Z,73.30
2018-04-30T23:53:50.521Z,74.30
2018-04-30T23:56:18.011Z,74.30
2018-04-30T23:58:46.284Z,74.00
